sensor_id;sensor_type;location;lat;lon;timestamp;temperature;humidity
57753;DHT22;43583;53.132;6.574;2023-03-26T00:02:22;7.80;99.90
57753;DHT22;43583;53.132;6.574;2023-03-26T00:04:48;7.80;99.90
57753;DHT22;43583;53.132;6.574;2023-03-26T00:07:14;7.80;99.90
57753;DHT22;43583;53.132;6.574;2023-03-26T00:09:40;7.80;99.90
57753;DHT22;43583;53.132;6.574;2023-03-26T00:12:06;7.80;99.90
57753;DHT22;43583;53.132;6.574;2023-03-26T00:14:32;7.80;99.90
57753;DHT22;43583;53.132;6.574;2023-03-26T00:16:57;7.70;99.90
57753;DHT22;43583;53.132;6.574;2023-03-26T00:19:23;7.70;99.90
57753;DHT22;43583;53.132;6.574;2023-03-26T00:21:49;7.70;99.90
57753;DHT22;43583;53.132;6.574;2023-03-26T00:24:15;7.60;99.90
57753;DHT22;43583;53.132;6.574;2023-03-26T00:26:41;7.60;99.90
57753;DHT22;43583;53.132;6.574;2023-03-26T00:29:07;7.60;99.90
57753;DHT22;43583;53.132;6.574;2023-03-26T00:31:35;7.60;99.90
57753;DHT22;43583;53.132;6.574;2023-03-26T00:34:02;7.60;99.90
57753;DHT22;43583;53.132;6.574;2023-03-26T00:36:29;7.60;99.90
57753;DHT22;43583;53.132;6.574;2023-03-26T00:38:55;7.60;99.90
57753;DHT22;43583;53.132;6.574;2023-03-26T00:41:22;7.60;99.90
57753;DHT22;43583;53.132;6.574;2023-03-26T00:43:56;7.60;99.90
57753;DHT22;43583;53.132;6.574;2023-03-26T00:46:24;7.60;99.90
57753;DHT22;43583;53.132;6.574;2023-03-26T00:48:49;7.60;99.90
57753;DHT22;43583;53.132;6.574;2023-03-26T00:51:16;7.70;99.90
57753;DHT22;43583;53.132;6.574;2023-03-26T00:53:44;7.70;99.90
57753;DHT22;43583;53.132;6.574;2023-03-26T00:56:10;7.70;99.90
57753;DHT22;43583;53.132;6.574;2023-03-26T00:58:37;7.60;99.90
57753;DHT22;43583;53.132;6.574;2023-03-26T01:01:06;7.60;99.90
57753;DHT22;43583;53.132;6.574;2023-03-26T01:03:35;7.60;99.90
57753;DHT22;43583;53.132;6.574;2023-03-26T01:06:28;7.60;99.90
57753;DHT22;43583;53.132;6.574;2023-03-26T01:09:24;7.60;99.90
57753;DHT22;43583;53.132;6.574;2023-03-26T01:11:48;7.50;99.90
57753;DHT22;43583;53.132;6.574;2023-03-26T01:14:21;7.50;99.90
57753;DHT22;43583;53.132;6.574;2023-03-26T01:16:56;7.50;99.90
57753;DHT22;43583;53.132;6.574;2023-03-26T01:21:51;7.50;99.90
57753;DHT22;43583;53.132;6.574;2023-03-26T01:24:16;7.50;99.90
57753;DHT22;43583;53.132;6.574;2023-03-26T01:29:52;7.50;99.90
57753;DHT22;43583;53.132;6.574;2023-03-26T01:35:23;7.40;99.90
57753;DHT22;43583;53.132;6.574;2023-03-26T01:38:22;7.40;99.90
57753;DHT22;43583;53.132;6.574;2023-03-26T01:40:59;7.40;99.90
57753;DHT22;43583;53.132;6.574;2023-03-26T01:46:10;7.40;99.90
57753;DHT22;43583;53.132;6.574;2023-03-26T01:48:39;7.40;99.90
57753;DHT22;43583;53.132;6.574;2023-03-26T01:51:06;7.40;99.90
57753;DHT22;43583;53.132;6.574;2023-03-26T01:53:35;7.40;99.90
57753;DHT22;43583;53.132;6.574;2023-03-26T01:56:09;7.40;99.90
57753;DHT22;43583;53.132;6.574;2023-03-26T01:59:02;7.40;99.90
57753;DHT22;43583;53.132;6.574;2023-03-26T02:01:48;7.30;99.90
57753;DHT22;43583;53.132;6.574;2023-03-26T02:07:20;7.10;99.90
57753;DHT22;43583;53.132;6.574;2023-03-26T02:09:50;7.00;99.90
57753;DHT22;43583;53.132;6.574;2023-03-26T02:12:20;6.90;99.90
57753;DHT22;43583;53.132;6.574;2023-03-26T02:14:47;6.80;99.90
57753;DHT22;43583;53.132;6.574;2023-03-26T02:17:13;6.70;99.90
57753;DHT22;43583;53.132;6.574;2023-03-26T02:19:38;6.70;99.90
57753;DHT22;43583;53.132;6.574;2023-03-26T02:22:08;6.60;99.90
57753;DHT22;43583;53.132;6.574;2023-03-26T02:24:39;6.50;99.90
57753;DHT22;43583;53.132;6.574;2023-03-26T02:27:04;6.50;99.90
57753;DHT22;43583;53.132;6.574;2023-03-26T02:29:34;6.40;99.90
57753;DHT22;43583;53.132;6.574;2023-03-26T02:32:05;6.30;99.90
57753;DHT22;43583;53.132;6.574;2023-03-26T02:34:31;6.30;99.90
57753;DHT22;43583;53.132;6.574;2023-03-26T02:36:57;6.20;99.90
57753;DHT22;43583;53.132;6.574;2023-03-26T02:39:23;6.10;99.90
57753;DHT22;43583;53.132;6.574;2023-03-26T02:41:49;6.10;99.90
57753;DHT22;43583;53.132;6.574;2023-03-26T02:44:15;6.20;99.90
57753;DHT22;43583;53.132;6.574;2023-03-26T02:46:40;6.20;99.90
57753;DHT22;43583;53.132;6.574;2023-03-26T02:49:06;6.20;99.90
57753;DHT22;43583;53.132;6.574;2023-03-26T02:51:32;6.30;99.90
57753;DHT22;43583;53.132;6.574;2023-03-26T02:54:02;6.30;99.90
57753;DHT22;43583;53.132;6.574;2023-03-26T02:56:28;6.40;99.90
57753;DHT22;43583;53.132;6.574;2023-03-26T02:58:54;6.40;99.90
57753;DHT22;43583;53.132;6.574;2023-03-26T03:01:19;6.40;99.90
57753;DHT22;43583;53.132;6.574;2023-03-26T03:03:45;6.40;99.90
57753;DHT22;43583;53.132;6.574;2023-03-26T03:06:15;6.50;99.90
57753;DHT22;43583;53.132;6.574;2023-03-26T03:08:44;6.50;99.90
57753;DHT22;43583;53.132;6.574;2023-03-26T03:11:15;6.50;99.90
57753;DHT22;43583;53.132;6.574;2023-03-26T03:13:42;6.60;99.90
57753;DHT22;43583;53.132;6.574;2023-03-26T03:16:09;6.50;99.90
57753;DHT22;43583;53.132;6.574;2023-03-26T03:18:35;6.60;99.90
57753;DHT22;43583;53.132;6.574;2023-03-26T03:21:02;6.60;99.90
57753;DHT22;43583;53.132;6.574;2023-03-26T03:23:28;6.60;99.90
57753;DHT22;43583;53.132;6.574;2023-03-26T03:25:53;6.70;99.90
57753;DHT22;43583;53.132;6.574;2023-03-26T03:28:22;6.70;99.90
57753;DHT22;43583;53.132;6.574;2023-03-26T03:30:48;6.70;99.90
57753;DHT22;43583;53.132;6.574;2023-03-26T03:33:20;6.70;99.90
57753;DHT22;43583;53.132;6.574;2023-03-26T03:35:47;6.70;99.90
57753;DHT22;43583;53.132;6.574;2023-03-26T03:38:14;6.80;99.90
57753;DHT22;43583;53.132;6.574;2023-03-26T03:40:39;6.70;99.90
57753;DHT22;43583;53.132;6.574;2023-03-26T03:43:05;6.80;99.90
57753;DHT22;43583;53.132;6.574;2023-03-26T03:45:30;6.80;99.90
57753;DHT22;43583;53.132;6.574;2023-03-26T03:47:56;6.80;99.90
57753;DHT22;43583;53.132;6.574;2023-03-26T03:50:21;6.80;99.90
57753;DHT22;43583;53.132;6.574;2023-03-26T03:52:47;6.70;99.90
57753;DHT22;43583;53.132;6.574;2023-03-26T03:55:13;6.80;99.90
57753;DHT22;43583;53.132;6.574;2023-03-26T03:57:39;6.70;99.90
57753;DHT22;43583;53.132;6.574;2023-03-26T04:00:06;6.70;99.90
57753;DHT22;43583;53.132;6.574;2023-03-26T04:02:36;6.70;99.90
57753;DHT22;43583;53.132;6.574;2023-03-26T04:05:03;6.70;99.90
57753;DHT22;43583;53.132;6.574;2023-03-26T04:07:30;6.60;99.90
57753;DHT22;43583;53.132;6.574;2023-03-26T04:09:57;6.50;99.90
57753;DHT22;43583;53.132;6.574;2023-03-26T04:12:26;6.40;99.90
57753;DHT22;43583;53.132;6.574;2023-03-26T04:14:52;6.30;99.90
57753;DHT22;43583;53.132;6.574;2023-03-26T04:17:17;6.10;99.90
57753;DHT22;43583;53.132;6.574;2023-03-26T04:19:46;6.10;99.90
57753;DHT22;43583;53.132;6.574;2023-03-26T04:22:12;6.00;99.90
57753;DHT22;43583;53.132;6.574;2023-03-26T04:24:37;5.90;99.90
57753;DHT22;43583;53.132;6.574;2023-03-26T04:27:05;5.70;99.90
57753;DHT22;43583;53.132;6.574;2023-03-26T04:29:37;5.70;99.90
57753;DHT22;43583;53.132;6.574;2023-03-26T04:32:21;5.60;99.90
57753;DHT22;43583;53.132;6.574;2023-03-26T04:34:46;5.50;99.90
57753;DHT22;43583;53.132;6.574;2023-03-26T04:37:26;5.30;99.90
57753;DHT22;43583;53.132;6.574;2023-03-26T04:39:53;5.30;99.90
57753;DHT22;43583;53.132;6.574;2023-03-26T04:42:19;5.20;99.90
57753;DHT22;43583;53.132;6.574;2023-03-26T04:44:48;5.10;99.90
57753;DHT22;43583;53.132;6.574;2023-03-26T04:47:16;5.10;99.90
57753;DHT22;43583;53.132;6.574;2023-03-26T04:49:43;5.10;99.90
57753;DHT22;43583;53.132;6.574;2023-03-26T04:52:13;5.00;99.90
57753;DHT22;43583;53.132;6.574;2023-03-26T04:54:39;5.00;99.90
57753;DHT22;43583;53.132;6.574;2023-03-26T04:57:10;5.00;99.90
57753;DHT22;43583;53.132;6.574;2023-03-26T04:59:37;5.00;99.90
57753;DHT22;43583;53.132;6.574;2023-03-26T05:02:05;5.00;99.90
57753;DHT22;43583;53.132;6.574;2023-03-26T05:04:32;5.00;99.90
57753;DHT22;43583;53.132;6.574;2023-03-26T05:07:01;5.00;99.90
57753;DHT22;43583;53.132;6.574;2023-03-26T05:09:27;5.10;99.90
57753;DHT22;43583;53.132;6.574;2023-03-26T05:11:53;5.10;99.90
57753;DHT22;43583;53.132;6.574;2023-03-26T05:14:19;5.10;99.90
57753;DHT22;43583;53.132;6.574;2023-03-26T05:16:45;5.20;99.90
57753;DHT22;43583;53.132;6.574;2023-03-26T05:19:11;5.10;99.90
57753;DHT22;43583;53.132;6.574;2023-03-26T05:21:37;5.20;99.90
57753;DHT22;43583;53.132;6.574;2023-03-26T05:24:03;5.20;99.90
57753;DHT22;43583;53.132;6.574;2023-03-26T05:26:31;5.20;99.90
57753;DHT22;43583;53.132;6.574;2023-03-26T05:28:57;5.20;99.90
57753;DHT22;43583;53.132;6.574;2023-03-26T05:31:23;5.20;99.90
57753;DHT22;43583;53.132;6.574;2023-03-26T05:33:51;5.20;99.90
57753;DHT22;43583;53.132;6.574;2023-03-26T05:36:17;5.20;99.90
57753;DHT22;43583;53.132;6.574;2023-03-26T05:38:44;5.20;99.90
57753;DHT22;43583;53.132;6.574;2023-03-26T05:41:13;5.20;99.90
57753;DHT22;43583;53.132;6.574;2023-03-26T05:43:39;5.30;99.90
57753;DHT22;43583;53.132;6.574;2023-03-26T05:46:06;5.40;99.90
57753;DHT22;43583;53.132;6.574;2023-03-26T05:48:31;5.50;99.90
57753;DHT22;43583;53.132;6.574;2023-03-26T05:50:57;5.50;99.90
57753;DHT22;43583;53.132;6.574;2023-03-26T05:53:24;5.60;99.90
57753;DHT22;43583;53.132;6.574;2023-03-26T05:55:50;5.70;99.90
57753;DHT22;43583;53.132;6.574;2023-03-26T05:58:27;5.80;99.90
57753;DHT22;43583;53.132;6.574;2023-03-26T06:01:01;5.80;99.90
57753;DHT22;43583;53.132;6.574;2023-03-26T06:03:30;5.90;99.90
57753;DHT22;43583;53.132;6.574;2023-03-26T06:05:56;5.90;99.90
57753;DHT22;43583;53.132;6.574;2023-03-26T06:08:21;6.00;99.90
57753;DHT22;43583;53.132;6.574;2023-03-26T06:10:47;6.00;99.90
57753;DHT22;43583;53.132;6.574;2023-03-26T06:13:15;6.10;99.90
57753;DHT22;43583;53.132;6.574;2023-03-26T06:15:41;6.10;99.90
57753;DHT22;43583;53.132;6.574;2023-03-26T06:18:07;6.20;99.90
57753;DHT22;43583;53.132;6.574;2023-03-26T06:20:33;6.20;99.90
57753;DHT22;43583;53.132;6.574;2023-03-26T06:22:59;6.30;99.90
57753;DHT22;43583;53.132;6.574;2023-03-26T06:25:24;6.30;99.90
57753;DHT22;43583;53.132;6.574;2023-03-26T06:27:50;6.40;99.90
57753;DHT22;43583;53.132;6.574;2023-03-26T06:30:16;6.40;99.90
57753;DHT22;43583;53.132;6.574;2023-03-26T06:32:41;6.50;99.90
57753;DHT22;43583;53.132;6.574;2023-03-26T06:35:07;6.50;99.90
57753;DHT22;43583;53.132;6.574;2023-03-26T06:37:32;6.50;99.90
57753;DHT22;43583;53.132;6.574;2023-03-26T06:39:58;6.60;99.90
57753;DHT22;43583;53.132;6.574;2023-03-26T06:42:24;6.60;99.90
57753;DHT22;43583;53.132;6.574;2023-03-26T06:44:49;6.60;99.90
57753;DHT22;43583;53.132;6.574;2023-03-26T06:47:15;6.70;99.90
57753;DHT22;43583;53.132;6.574;2023-03-26T06:49:40;6.70;99.90
57753;DHT22;43583;53.132;6.574;2023-03-26T06:52:06;6.70;99.90
57753;DHT22;43583;53.132;6.574;2023-03-26T06:54:31;6.80;99.90
57753;DHT22;43583;53.132;6.574;2023-03-26T06:56:57;6.80;99.90
57753;DHT22;43583;53.132;6.574;2023-03-26T06:59:24;6.90;99.90
57753;DHT22;43583;53.132;6.574;2023-03-26T07:01:50;7.00;99.90
57753;DHT22;43583;53.132;6.574;2023-03-26T07:04:15;7.00;99.90
57753;DHT22;43583;53.132;6.574;2023-03-26T07:06:41;6.90;99.90
57753;DHT22;43583;53.132;6.574;2023-03-26T07:09:07;7.00;99.90
57753;DHT22;43583;53.132;6.574;2023-03-26T07:11:32;7.00;99.90
57753;DHT22;43583;53.132;6.574;2023-03-26T07:13:58;7.00;99.90
57753;DHT22;43583;53.132;6.574;2023-03-26T07:16:24;7.00;99.90
57753;DHT22;43583;53.132;6.574;2023-03-26T07:18:50;7.00;99.90
57753;DHT22;43583;53.132;6.574;2023-03-26T07:21:16;7.00;99.90
57753;DHT22;43583;53.132;6.574;2023-03-26T07:23:44;7.10;99.90
57753;DHT22;43583;53.132;6.574;2023-03-26T07:26:35;7.10;99.90
57753;DHT22;43583;53.132;6.574;2023-03-26T07:29:22;7.10;99.90
57753;DHT22;43583;53.132;6.574;2023-03-26T07:45:45;7.40;99.90
57753;DHT22;43583;53.132;6.574;2023-03-26T07:48:17;7.40;99.90
57753;DHT22;43583;53.132;6.574;2023-03-26T07:50:45;7.50;99.90
57753;DHT22;43583;53.132;6.574;2023-03-26T07:53:11;7.60;99.90
57753;DHT22;43583;53.132;6.574;2023-03-26T07:56:06;7.70;99.90
57753;DHT22;43583;53.132;6.574;2023-03-26T08:01:30;7.90;99.90
57753;DHT22;43583;53.132;6.574;2023-03-26T08:07:36;8.00;99.90
57753;DHT22;43583;53.132;6.574;2023-03-26T08:15:37;8.30;99.90
57753;DHT22;43583;53.132;6.574;2023-03-26T08:21:08;8.50;99.90
57753;DHT22;43583;53.132;6.574;2023-03-26T08:23:46;8.40;99.90
57753;DHT22;43583;53.132;6.574;2023-03-26T08:26:52;8.40;99.90
57753;DHT22;43583;53.132;6.574;2023-03-26T08:31:59;8.60;99.90
57753;DHT22;43583;53.132;6.574;2023-03-26T08:34:26;8.80;99.90
57753;DHT22;43583;53.132;6.574;2023-03-26T08:36:51;9.40;99.90
57753;DHT22;43583;53.132;6.574;2023-03-26T08:39:17;10.20;99.90
57753;DHT22;43583;53.132;6.574;2023-03-26T08:55:51;13.60;99.90
57753;DHT22;43583;53.132;6.574;2023-03-26T08:58:34;13.80;99.90
57753;DHT22;43583;53.132;6.574;2023-03-26T09:10:31;11.40;98.20
57753;DHT22;43583;53.132;6.574;2023-03-26T09:19:14;11.10;98.50
57753;DHT22;43583;53.132;6.574;2023-03-26T09:22:23;11.20;99.60
57753;DHT22;43583;53.132;6.574;2023-03-26T09:25:14;11.00;97.30
57753;DHT22;43583;53.132;6.574;2023-03-26T09:40:14;9.90;97.80
57753;DHT22;43583;53.132;6.574;2023-03-26T09:42:45;9.70;99.30
57753;DHT22;43583;53.132;6.574;2023-03-26T09:48:14;9.30;99.50
57753;DHT22;43583;53.132;6.574;2023-03-26T09:51:02;9.00;99.90
57753;DHT22;43583;53.132;6.574;2023-03-26T09:53:56;9.00;99.90
57753;DHT22;43583;53.132;6.574;2023-03-26T09:56:53;8.90;99.90
57753;DHT22;43583;53.132;6.574;2023-03-26T10:00:18;8.90;99.90
57753;DHT22;43583;53.132;6.574;2023-03-26T10:02:58;8.90;99.90
57753;DHT22;43583;53.132;6.574;2023-03-26T10:05:57;8.90;99.90
57753;DHT22;43583;53.132;6.574;2023-03-26T10:32:08;9.00;99.90
57753;DHT22;43583;53.132;6.574;2023-03-26T10:40:12;8.80;99.90
57753;DHT22;43583;53.132;6.574;2023-03-26T10:46:02;8.70;99.90
57753;DHT22;43583;53.132;6.574;2023-03-26T10:56:51;8.60;99.90
57753;DHT22;43583;53.132;6.574;2023-03-26T10:59:18;8.60;99.90
57753;DHT22;43583;53.132;6.574;2023-03-26T11:04:48;8.60;99.90
57753;DHT22;43583;53.132;6.574;2023-03-26T11:07:41;8.70;99.90
57753;DHT22;43583;53.132;6.574;2023-03-26T11:12:43;8.70;99.90
57753;DHT22;43583;53.132;6.574;2023-03-26T11:15:23;8.60;99.90
57753;DHT22;43583;53.132;6.574;2023-03-26T11:20:39;9.00;99.90
57753;DHT22;43583;53.132;6.574;2023-03-26T11:23:10;8.90;99.90
57753;DHT22;43583;53.132;6.574;2023-03-26T11:26:07;8.90;99.90
57753;DHT22;43583;53.132;6.574;2023-03-26T11:28:45;9.00;99.90
57753;DHT22;43583;53.132;6.574;2023-03-26T11:31:38;9.00;99.90
57753;DHT22;43583;53.132;6.574;2023-03-26T11:34:12;9.10;99.90
57753;DHT22;43583;53.132;6.574;2023-03-26T11:36:44;9.10;99.90
57753;DHT22;43583;53.132;6.574;2023-03-26T11:39:14;9.30;99.90
57753;DHT22;43583;53.132;6.574;2023-03-26T11:41:43;9.10;99.80
57753;DHT22;43583;53.132;6.574;2023-03-26T11:44:20;9.00;99.60
57753;DHT22;43583;53.132;6.574;2023-03-26T11:46:50;8.70;98.70
57753;DHT22;43583;53.132;6.574;2023-03-26T11:49:17;8.50;99.40
57753;DHT22;43583;53.132;6.574;2023-03-26T11:51:46;8.50;99.50
57753;DHT22;43583;53.132;6.574;2023-03-26T11:54:12;8.50;99.40
57753;DHT22;43583;53.132;6.574;2023-03-26T11:56:50;8.50;99.30
57753;DHT22;43583;53.132;6.574;2023-03-26T11:59:52;8.50;99.40
57753;DHT22;43583;53.132;6.574;2023-03-26T12:02:30;8.50;99.00
57753;DHT22;43583;53.132;6.574;2023-03-26T12:05:14;8.50;99.40
57753;DHT22;43583;53.132;6.574;2023-03-26T12:08:02;8.70;99.70
57753;DHT22;43583;53.132;6.574;2023-03-26T12:10:32;8.70;99.10
57753;DHT22;43583;53.132;6.574;2023-03-26T12:13:01;8.80;99.00
57753;DHT22;43583;53.132;6.574;2023-03-26T12:15:29;8.80;98.00
57753;DHT22;43583;53.132;6.574;2023-03-26T12:17:57;8.70;98.50
57753;DHT22;43583;53.132;6.574;2023-03-26T12:22:56;8.80;99.30
57753;DHT22;43583;53.132;6.574;2023-03-26T12:27:58;8.90;97.80
57753;DHT22;43583;53.132;6.574;2023-03-26T12:30:34;8.90;98.50
57753;DHT22;43583;53.132;6.574;2023-03-26T12:33:37;8.80;97.60
57753;DHT22;43583;53.132;6.574;2023-03-26T12:38:44;8.60;97.30
57753;DHT22;43583;53.132;6.574;2023-03-26T12:41:12;8.60;98.60
57753;DHT22;43583;53.132;6.574;2023-03-26T12:43:47;8.50;98.00
57753;DHT22;43583;53.132;6.574;2023-03-26T12:46:32;8.50;98.20
57753;DHT22;43583;53.132;6.574;2023-03-26T12:49:05;8.50;98.10
57753;DHT22;43583;53.132;6.574;2023-03-26T12:57:19;8.50;96.80
57753;DHT22;43583;53.132;6.574;2023-03-26T13:00:02;8.50;98.50
57753;DHT22;43583;53.132;6.574;2023-03-26T13:08:20;8.70;97.40
57753;DHT22;43583;53.132;6.574;2023-03-26T13:11:09;8.70;97.60
57753;DHT22;43583;53.132;6.574;2023-03-26T13:14:13;8.60;96.70
57753;DHT22;43583;53.132;6.574;2023-03-26T13:16:49;8.90;96.70
57753;DHT22;43583;53.132;6.574;2023-03-26T13:19:32;9.10;96.00
57753;DHT22;43583;53.132;6.574;2023-03-26T13:30:26;9.00;96.30
57753;DHT22;43583;53.132;6.574;2023-03-26T13:52:16;8.60;97.00
57753;DHT22;43583;53.132;6.574;2023-03-26T13:57:27;8.70;98.20
57753;DHT22;43583;53.132;6.574;2023-03-26T14:00:35;8.70;97.80
57753;DHT22;43583;53.132;6.574;2023-03-26T14:03:17;8.70;97.60
57753;DHT22;43583;53.132;6.574;2023-03-26T14:05:53;8.60;96.80
57753;DHT22;43583;53.132;6.574;2023-03-26T14:08:36;8.50;96.50
57753;DHT22;43583;53.132;6.574;2023-03-26T14:11:16;8.40;96.70
57753;DHT22;43583;53.132;6.574;2023-03-26T14:13:59;8.20;97.00
57753;DHT22;43583;53.132;6.574;2023-03-26T14:16:30;8.30;97.60
57753;DHT22;43583;53.132;6.574;2023-03-26T14:25:31;9.10;96.20
57753;DHT22;43583;53.132;6.574;2023-03-26T14:30:55;8.80;95.70
57753;DHT22;43583;53.132;6.574;2023-03-26T14:36:24;9.10;96.00
57753;DHT22;43583;53.132;6.574;2023-03-26T14:41:50;8.90;95.40
57753;DHT22;43583;53.132;6.574;2023-03-26T14:47:14;9.00;95.80
57753;DHT22;43583;53.132;6.574;2023-03-26T14:52:52;8.90;94.60
57753;DHT22;43583;53.132;6.574;2023-03-26T15:01:28;9.00;95.20
57753;DHT22;43583;53.132;6.574;2023-03-26T15:07:35;8.30;93.20
57753;DHT22;43583;53.132;6.574;2023-03-26T15:10:20;8.00;94.70
57753;DHT22;43583;53.132;6.574;2023-03-26T15:13:27;7.80;95.50
57753;DHT22;43583;53.132;6.574;2023-03-26T15:21:51;7.90;96.70
57753;DHT22;43583;53.132;6.574;2023-03-26T15:24:31;7.90;95.20
57753;DHT22;43583;53.132;6.574;2023-03-26T15:27:36;7.80;96.10
57753;DHT22;43583;53.132;6.574;2023-03-26T15:35:54;7.40;95.70
57753;DHT22;43583;53.132;6.574;2023-03-26T15:38:50;7.40;96.50
57753;DHT22;43583;53.132;6.574;2023-03-26T15:41:27;7.40;95.60
57753;DHT22;43583;53.132;6.574;2023-03-26T15:49:28;7.80;97.00
57753;DHT22;43583;53.132;6.574;2023-03-26T15:55:06;8.20;97.00
57753;DHT22;43583;53.132;6.574;2023-03-26T15:57:42;8.10;97.00
57753;DHT22;43583;53.132;6.574;2023-03-26T16:00:18;8.00;97.70
57753;DHT22;43583;53.132;6.574;2023-03-26T16:03:10;7.90;97.50
57753;DHT22;43583;53.132;6.574;2023-03-26T16:10:59;7.50;97.70
57753;DHT22;43583;53.132;6.574;2023-03-26T16:28:36;6.60;98.00
57753;DHT22;43583;53.132;6.574;2023-03-26T16:31:22;6.50;98.60
57753;DHT22;43583;53.132;6.574;2023-03-26T16:34:02;6.50;98.60
57753;DHT22;43583;53.132;6.574;2023-03-26T16:36:43;6.50;98.80
57753;DHT22;43583;53.132;6.574;2023-03-26T16:39:41;6.60;98.90
57753;DHT22;43583;53.132;6.574;2023-03-26T16:44:50;6.90;99.50
57753;DHT22;43583;53.132;6.574;2023-03-26T16:47:27;7.00;97.50
57753;DHT22;43583;53.132;6.574;2023-03-26T16:50:12;6.90;96.70
57753;DHT22;43583;53.132;6.574;2023-03-26T16:53:21;6.80;97.20
57753;DHT22;43583;53.132;6.574;2023-03-26T16:59:01;6.60;97.00
57753;DHT22;43583;53.132;6.574;2023-03-26T17:01:49;6.50;97.50
57753;DHT22;43583;53.132;6.574;2023-03-26T17:04:23;6.40;98.40
57753;DHT22;43583;53.132;6.574;2023-03-26T17:06:56;6.30;98.30
57753;DHT22;43583;53.132;6.574;2023-03-26T17:09:54;6.20;98.00
57753;DHT22;43583;53.132;6.574;2023-03-26T17:12:50;6.20;98.10
57753;DHT22;43583;53.132;6.574;2023-03-26T17:21:19;5.90;98.50
57753;DHT22;43583;53.132;6.574;2023-03-26T17:26:47;5.80;99.20
57753;DHT22;43583;53.132;6.574;2023-03-26T17:29:47;5.80;99.90
57753;DHT22;43583;53.132;6.574;2023-03-26T17:32:15;5.80;99.50
57753;DHT22;43583;53.132;6.574;2023-03-26T17:42:30;5.60;99.70
57753;DHT22;43583;53.132;6.574;2023-03-26T17:44:58;5.60;99.60
57753;DHT22;43583;53.132;6.574;2023-03-26T17:47:27;5.60;99.90
57753;DHT22;43583;53.132;6.574;2023-03-26T17:50:19;5.60;99.90
57753;DHT22;43583;53.132;6.574;2023-03-26T17:52:59;5.60;99.90
57753;DHT22;43583;53.132;6.574;2023-03-26T17:55:33;5.50;99.90
57753;DHT22;43583;53.132;6.574;2023-03-26T17:58:03;5.50;99.90
57753;DHT22;43583;53.132;6.574;2023-03-26T18:00:35;5.50;99.90
57753;DHT22;43583;53.132;6.574;2023-03-26T18:03:06;5.60;99.90
57753;DHT22;43583;53.132;6.574;2023-03-26T18:05:33;5.50;99.90
57753;DHT22;43583;53.132;6.574;2023-03-26T18:08:19;5.50;99.90
57753;DHT22;43583;53.132;6.574;2023-03-26T18:14:07;5.40;99.90
57753;DHT22;43583;53.132;6.574;2023-03-26T18:16:41;5.40;99.90
57753;DHT22;43583;53.132;6.574;2023-03-26T18:19:14;5.30;99.90
57753;DHT22;43583;53.132;6.574;2023-03-26T18:22:02;5.20;99.90
57753;DHT22;43583;53.132;6.574;2023-03-26T18:24:31;5.30;99.90
57753;DHT22;43583;53.132;6.574;2023-03-26T18:27:00;5.20;99.90
57753;DHT22;43583;53.132;6.574;2023-03-26T18:29:33;5.20;99.90
57753;DHT22;43583;53.132;6.574;2023-03-26T18:32:18;5.20;99.90
57753;DHT22;43583;53.132;6.574;2023-03-26T18:35:12;5.20;99.90
57753;DHT22;43583;53.132;6.574;2023-03-26T18:37:38;5.10;99.90
57753;DHT22;43583;53.132;6.574;2023-03-26T18:40:19;5.10;99.90
57753;DHT22;43583;53.132;6.574;2023-03-26T18:42:57;5.10;99.90
57753;DHT22;43583;53.132;6.574;2023-03-26T18:45:36;5.00;99.90
57753;DHT22;43583;53.132;6.574;2023-03-26T18:48:16;4.90;99.90
57753;DHT22;43583;53.132;6.574;2023-03-26T18:50:44;4.90;99.90
57753;DHT22;43583;53.132;6.574;2023-03-26T18:53:25;4.90;99.90
57753;DHT22;43583;53.132;6.574;2023-03-26T18:55:52;4.80;99.90
57753;DHT22;43583;53.132;6.574;2023-03-26T18:58:31;4.80;99.90
57753;DHT22;43583;53.132;6.574;2023-03-26T19:01:09;4.80;99.90
57753;DHT22;43583;53.132;6.574;2023-03-26T19:03:38;4.70;99.90
57753;DHT22;43583;53.132;6.574;2023-03-26T19:06:09;4.70;99.90
57753;DHT22;43583;53.132;6.574;2023-03-26T19:08:37;4.70;99.90
57753;DHT22;43583;53.132;6.574;2023-03-26T19:11:09;4.60;99.90
57753;DHT22;43583;53.132;6.574;2023-03-26T19:13:38;4.50;99.90
57753;DHT22;43583;53.132;6.574;2023-03-26T19:16:23;4.50;99.90
57753;DHT22;43583;53.132;6.574;2023-03-26T19:18:51;4.50;99.90
57753;DHT22;43583;53.132;6.574;2023-03-26T19:21:17;4.50;99.90
57753;DHT22;43583;53.132;6.574;2023-03-26T19:23:45;4.60;99.90
57753;DHT22;43583;53.132;6.574;2023-03-26T19:26:12;4.60;99.90
57753;DHT22;43583;53.132;6.574;2023-03-26T19:28:43;4.60;99.90
57753;DHT22;43583;53.132;6.574;2023-03-26T19:31:18;4.70;99.90
57753;DHT22;43583;53.132;6.574;2023-03-26T19:33:45;4.70;99.90
57753;DHT22;43583;53.132;6.574;2023-03-26T19:36:24;4.70;99.90
57753;DHT22;43583;53.132;6.574;2023-03-26T19:39:09;4.70;99.90
57753;DHT22;43583;53.132;6.574;2023-03-26T19:41:37;4.70;99.90
57753;DHT22;43583;53.132;6.574;2023-03-26T19:44:23;4.70;99.90
57753;DHT22;43583;53.132;6.574;2023-03-26T19:46:50;4.60;99.90
57753;DHT22;43583;53.132;6.574;2023-03-26T19:49:31;4.50;99.90
57753;DHT22;43583;53.132;6.574;2023-03-26T19:52:11;4.50;99.90
57753;DHT22;43583;53.132;6.574;2023-03-26T19:57:10;4.30;99.90
57753;DHT22;43583;53.132;6.574;2023-03-26T19:59:37;4.30;99.90
57753;DHT22;43583;53.132;6.574;2023-03-26T20:02:09;4.20;99.90
57753;DHT22;43583;53.132;6.574;2023-03-26T20:04:35;4.20;99.90
57753;DHT22;43583;53.132;6.574;2023-03-26T20:07:01;4.30;99.90
57753;DHT22;43583;53.132;6.574;2023-03-26T20:09:26;4.30;99.90
57753;DHT22;43583;53.132;6.574;2023-03-26T20:11:52;4.30;99.90
57753;DHT22;43583;53.132;6.574;2023-03-26T20:14:18;4.20;99.90
57753;DHT22;43583;53.132;6.574;2023-03-26T20:16:48;4.20;99.90
57753;DHT22;43583;53.132;6.574;2023-03-26T20:19:14;4.30;99.90
57753;DHT22;43583;53.132;6.574;2023-03-26T20:21:40;4.30;99.90
57753;DHT22;43583;53.132;6.574;2023-03-26T20:24:16;4.30;99.90
57753;DHT22;43583;53.132;6.574;2023-03-26T20:26:43;4.20;99.90
57753;DHT22;43583;53.132;6.574;2023-03-26T20:29:09;4.30;99.90
57753;DHT22;43583;53.132;6.574;2023-03-26T20:31:35;4.30;99.90
57753;DHT22;43583;53.132;6.574;2023-03-26T20:34:02;4.30;99.90
57753;DHT22;43583;53.132;6.574;2023-03-26T20:36:28;4.30;99.90
57753;DHT22;43583;53.132;6.574;2023-03-26T20:38:53;4.30;99.90
57753;DHT22;43583;53.132;6.574;2023-03-26T20:41:22;4.20;99.90
57753;DHT22;43583;53.132;6.574;2023-03-26T20:43:51;4.20;99.90
57753;DHT22;43583;53.132;6.574;2023-03-26T20:46:19;4.20;99.90
57753;DHT22;43583;53.132;6.574;2023-03-26T20:48:45;4.10;99.90
57753;DHT22;43583;53.132;6.574;2023-03-26T20:51:12;4.00;99.90
57753;DHT22;43583;53.132;6.574;2023-03-26T20:53:42;4.00;99.90
57753;DHT22;43583;53.132;6.574;2023-03-26T20:56:13;4.00;99.90
57753;DHT22;43583;53.132;6.574;2023-03-26T20:58:42;4.00;99.90
57753;DHT22;43583;53.132;6.574;2023-03-26T21:01:12;4.00;99.90
57753;DHT22;43583;53.132;6.574;2023-03-26T21:03:39;4.00;99.90
57753;DHT22;43583;53.132;6.574;2023-03-26T21:06:08;4.00;99.90
57753;DHT22;43583;53.132;6.574;2023-03-26T21:08:37;4.00;99.90